Olathe, KS

8:18 PM CST on February 06, 2016 (GMT -0600)
Northgate Estates | | Change Station
CLOSE
Current Station
Personal Weather Station
Location: Olathe, KS
Elevation: 970 ft
Nearby Weather Stations

Elev 970 ft 38.89 °N, 94.82 °W | Updated 6 seconds ago

Partly Cloudy
Partly Cloudy
39.0 °F
Feels Like 39 °F
N
0.9
Wind Variable Wind from SSE
Gusts 3.0 mph

Today
High -- | Low -- °F
--% Chance of Precip.
Yesterday
High -- | Low -- °F
Precip. -- in
Pressure 30.17 in
Visibility 10.0 miles
Clouds Clear
Windchill 39 °F
Dew Point 30 °F
Humidity 70%
Rainfall 0.00 in
Snow Depth Not available.
7:21 AM 5:46 PM
Waning Crescent, 3% visible
METAR KOJC 070153Z 20004KT 10SM CLR 03/M03 A3014 RMK AO2 SLP216 T00281028
Pressure 30.17 in
Visibility 10.0 miles
Clouds Clear
Windchill 39 °F
Dew Point 30 °F
Humidity 70%
Rainfall 0.00 in
Snow Depth Not available.
7:21 AM 5:46 PM
Waning Crescent, 3% visible
METAR KOJC 070153Z 20004KT 10SM CLR 03/M03 A3014 RMK AO2 SLP216 T00281028

10-Day Weather Forecast

Almanac

Astronomy

Feb. 06, 2016 Rise Set
Actual Time
Civil Twilight
Nautical Twilight
Astronomical Twilight
Moon
Length of Visible Light
Length of Day
Tomorrow will be .
, % of the Moon is Illuminated

Today's Extremes

State Highs State Lows

Community

WunderPhotos

Upload Photos

1,891,138 photos uploaded!

WunderBlog® & News

Nearby

Air Quality

  Air Quality AQ Index Pollutant
Not available.

Snow Depth

Station Depth Elevation

Earthquake Activity

City Distance Mag. Time & Date
Minimum magnitude displayed is 2.5.

Coastal Water Temperatures

Place Temperature

Stations

Nearby Weather Stations

Station Location Temp. Windchill Dew Point Humidity Wind Precip. Elev Updated Type
                   

Watches & Warnings

There are currently no watches in effect.